Riverton, WY

11:06 AM MDT on July 24, 2014 (GMT -0600)
Hunt (KLND) Elev 5558 ft | 42.82 °N, 108.73 °W | Change Station
Active Advisory: Fire Weather Warning Active Notice: Record Report

Current weather conditions updated 13 minutes ago

Clear
Clear
84 °F
Feels Like 84 °F
N
24
Wind Variable Wind from SW
Gusts 34 mph

Today is forecast to be Cooler than yesterday.

Today
High -- | Low -- °F
--% Chance of Precip.
Yesterday
High -- | Low -- °F
Precip. -- in
5:56 AM 8:43 PM
Waning Crescent, 5% visible
Pressure 29.81 in
Visibility 10.0 miles
Clouds Clear
Dew Point 37 °F
Humidity 19%
Rainfall 0.00 in
Snow Depth Not available.
UV 9 out of 12
Pollen 7.30 out of 12
Air Quality Not available.
Flu Activity Not available.
METAR KLND 241653Z AUTO 23021G30KT 10SM CLR 29/03 A3007 RMK AO2 PK WND 22039/1607 SLP092 T02890028 TSNO

More Conditions Fewer Conditions

Pressure 29.81 in
Visibility 10.0 miles
Clouds Clear
Dew Point 37 °F
Humidity 19%
Rainfall 0.00 in
Snow Depth Not available.
UV 9 out of 12
Pollen 7.30 out of 12
Air Quality Not available.
Flu Activity Not available.
METAR KLND 241653Z AUTO 23021G30KT 10SM CLR 29/03 A3007 RMK AO2 PK WND 22039/1607 SLP092 T02890028 TSNO

More Conditions Fewer Conditions

10-Day Weather Forecast

Almanac

Astronomy

Jul. 24, 2014 Rise Set
Actual Time 5:56 AM MDT 8:43 PM MDT
Civil Twilight 5:22 AM MDT 9:16 PM MDT
Nautical Twilight 4:40 AM MDT 9:58 PM MDT
Astronomical Twilight 3:52 AM MDT 10:46 PM MDT
Moon 4:07 AM MDT 7:00 PM MDT
Length of Visible Light 15h 53m
Length of Day
14h 47m
Tomorrow will be 1m 58s shorter.
Waning Crescent, 5% of the Moon is Illuminated
Today
Waning Crescent
Jul 26
New
Aug 3
First Quarter
Aug 10
Full
Aug 17
Last Quarter

Today's Extremes

State Highs State Lows

Community

WunderPhotos

Upload Photos

1,737,071 photos uploaded!

Nearby

Snow Depth

Station Depth Elevation
Townsend Creek 1 in 8700 ft
Big Sandy Opening 1 in 9080 ft
Grave Springs 0 in 8550 ft
Gunsight Pass 0 in 9820 ft
Kendall R.S. 0 in 7740 ft

Earthquake Activity

City Distance Mag. Time & Date
No recent earthquake activity has been reported nearby.
Minimum magnitude displayed is 2.5.

Coastal Water Temperatures

Place Temperature
No Stations Reporting

Nearby Weather Stations

Station Location Temp. Heat Index Dew Point Humidity Wind Precip. Elev Updated Type
Logan Park, Riverton, WY 91.0 °F 87 °F 43 °F 19% South  at  0.0 mph 0.00 in / hr 4984 ft 11:06 AM MDT Rapid Fire
Riverton, WY 88.1 °F 84 °F 38 °F 17% SW  at  23.0 mph - / hr 5405 ft 11:04 AM MDT Normal
HADS LITTLE WIND RIVER NEAR RIVERTON WY, Saint Stephens, WY 88 °F 85 °F - - North  at  - 0.00 in / hr 4900 ft 10:15 AM MDT MADIS
HADS BOYSEN RESERVOIR WEATHER STATION WY, Shoshoni, WY 84 °F 81 °F - - NNW  at  3 mph 0.00 in / hr 4708 ft 9:30 AM MDT MADIS

Show More Stations Show Fewer Stations